sensor_id;sensor_type;location;lat;lon;timestamp;temperature;humidity
14741;DHT22;7462;53.530;9.414;2023-02-18T00:01:51;6.80;99.90
14741;DHT22;7462;53.530;9.414;2023-02-18T00:04:20;6.80;99.90
14741;DHT22;7462;53.530;9.414;2023-02-18T00:06:48;6.80;99.90
14741;DHT22;7462;53.530;9.414;2023-02-18T00:09:16;6.80;99.90
14741;DHT22;7462;53.530;9.414;2023-02-18T00:11:44;6.80;99.90
14741;DHT22;7462;53.530;9.414;2023-02-18T00:14:15;6.80;99.90
14741;DHT22;7462;53.530;9.414;2023-02-18T00:16:44;6.80;99.90
14741;DHT22;7462;53.530;9.414;2023-02-18T00:19:14;6.80;99.90
14741;DHT22;7462;53.530;9.414;2023-02-18T00:21:43;6.80;99.90
14741;DHT22;7462;53.530;9.414;2023-02-18T00:24:13;6.80;99.90
14741;DHT22;7462;53.530;9.414;2023-02-18T00:26:43;6.80;99.90
14741;DHT22;7462;53.530;9.414;2023-02-18T00:29:12;6.80;99.90
14741;DHT22;7462;53.530;9.414;2023-02-18T00:31:41;6.70;99.90
14741;DHT22;7462;53.530;9.414;2023-02-18T00:34:09;6.70;99.90
14741;DHT22;7462;53.530;9.414;2023-02-18T00:36:38;6.70;99.90
14741;DHT22;7462;53.530;9.414;2023-02-18T00:39:08;6.70;99.90
14741;DHT22;7462;53.530;9.414;2023-02-18T00:41:38;6.60;99.90
14741;DHT22;7462;53.530;9.414;2023-02-18T00:44:07;6.70;99.90
14741;DHT22;7462;53.530;9.414;2023-02-18T00:46:37;6.70;99.90
14741;DHT22;7462;53.530;9.414;2023-02-18T00:49:06;6.70;99.90
14741;DHT22;7462;53.530;9.414;2023-02-18T00:51:34;6.70;99.90
14741;DHT22;7462;53.530;9.414;2023-02-18T00:54:02;6.70;99.90
14741;DHT22;7462;53.530;9.414;2023-02-18T00:56:30;6.70;99.90
14741;DHT22;7462;53.530;9.414;2023-02-18T00:58:58;6.70;99.90
14741;DHT22;7462;53.530;9.414;2023-02-18T01:01:26;6.70;99.90
14741;DHT22;7462;53.530;9.414;2023-02-18T01:03:56;6.70;99.90
14741;DHT22;7462;53.530;9.414;2023-02-18T01:06:24;6.60;99.90
14741;DHT22;7462;53.530;9.414;2023-02-18T01:08:52;6.60;99.90
14741;DHT22;7462;53.530;9.414;2023-02-18T01:11:21;6.60;99.90
14741;DHT22;7462;53.530;9.414;2023-02-18T01:13:50;6.60;99.90
14741;DHT22;7462;53.530;9.414;2023-02-18T01:16:18;6.60;99.90
14741;DHT22;7462;53.530;9.414;2023-02-18T01:18:46;6.60;99.90
14741;DHT22;7462;53.530;9.414;2023-02-18T01:21:16;6.60;99.90
14741;DHT22;7462;53.530;9.414;2023-02-18T01:23:44;6.60;99.90
14741;DHT22;7462;53.530;9.414;2023-02-18T01:26:14;6.60;99.90
14741;DHT22;7462;53.530;9.414;2023-02-18T01:28:42;6.50;99.90
14741;DHT22;7462;53.530;9.414;2023-02-18T01:31:12;6.50;99.90
14741;DHT22;7462;53.530;9.414;2023-02-18T01:33:41;6.50;99.90
14741;DHT22;7462;53.530;9.414;2023-02-18T01:36:10;6.60;99.90
14741;DHT22;7462;53.530;9.414;2023-02-18T01:38:39;6.50;99.90
14741;DHT22;7462;53.530;9.414;2023-02-18T01:41:08;6.50;99.90
14741;DHT22;7462;53.530;9.414;2023-02-18T01:43:37;6.60;99.90
14741;DHT22;7462;53.530;9.414;2023-02-18T01:46:15;6.60;99.90
14741;DHT22;7462;53.530;9.414;2023-02-18T01:48:49;6.50;99.90
14741;DHT22;7462;53.530;9.414;2023-02-18T01:51:20;6.50;99.90
14741;DHT22;7462;53.530;9.414;2023-02-18T01:53:54;6.50;99.90
14741;DHT22;7462;53.530;9.414;2023-02-18T01:56:27;6.50;99.90
14741;DHT22;7462;53.530;9.414;2023-02-18T01:58:57;6.50;99.90
14741;DHT22;7462;53.530;9.414;2023-02-18T02:01:29;6.50;99.90
14741;DHT22;7462;53.530;9.414;2023-02-18T02:03:57;6.50;99.90
14741;DHT22;7462;53.530;9.414;2023-02-18T02:06:26;6.50;99.90
14741;DHT22;7462;53.530;9.414;2023-02-18T02:08:57;6.50;99.90
14741;DHT22;7462;53.530;9.414;2023-02-18T02:11:40;6.50;99.90
14741;DHT22;7462;53.530;9.414;2023-02-18T02:14:23;6.50;99.90
14741;DHT22;7462;53.530;9.414;2023-02-18T02:17:01;6.50;99.90
14741;DHT22;7462;53.530;9.414;2023-02-18T02:20:00;6.50;99.90
14741;DHT22;7462;53.530;9.414;2023-02-18T02:26:33;6.60;99.90
14741;DHT22;7462;53.530;9.414;2023-02-18T02:35:02;6.60;99.90
14741;DHT22;7462;53.530;9.414;2023-02-18T02:37:37;6.50;99.90
14741;DHT22;7462;53.530;9.414;2023-02-18T02:40:17;6.50;99.90
14741;DHT22;7462;53.530;9.414;2023-02-18T02:42:57;6.60;99.90
14741;DHT22;7462;53.530;9.414;2023-02-18T02:45:42;6.60;99.90
14741;DHT22;7462;53.530;9.414;2023-02-18T02:48:17;6.60;99.90
14741;DHT22;7462;53.530;9.414;2023-02-18T02:50:54;6.60;99.90
14741;DHT22;7462;53.530;9.414;2023-02-18T02:53:26;6.60;99.90
14741;DHT22;7462;53.530;9.414;2023-02-18T02:55:55;6.60;99.90
14741;DHT22;7462;53.530;9.414;2023-02-18T02:58:24;6.60;99.90
14741;DHT22;7462;53.530;9.414;2023-02-18T03:01:05;6.60;99.90
14741;DHT22;7462;53.530;9.414;2023-02-18T03:04:03;6.60;99.90
14741;DHT22;7462;53.530;9.414;2023-02-18T03:07:13;6.60;99.90
14741;DHT22;7462;53.530;9.414;2023-02-18T03:09:56;6.70;99.90
14741;DHT22;7462;53.530;9.414;2023-02-18T03:12:33;6.70;99.90
14741;DHT22;7462;53.530;9.414;2023-02-18T03:15:06;6.70;99.90
14741;DHT22;7462;53.530;9.414;2023-02-18T03:17:40;6.70;99.90
14741;DHT22;7462;53.530;9.414;2023-02-18T03:20:17;6.70;99.90
14741;DHT22;7462;53.530;9.414;2023-02-18T03:22:50;6.70;99.90
14741;DHT22;7462;53.530;9.414;2023-02-18T03:25:20;6.70;99.90
14741;DHT22;7462;53.530;9.414;2023-02-18T03:27:50;6.70;99.90
14741;DHT22;7462;53.530;9.414;2023-02-18T03:30:23;6.60;99.90
14741;DHT22;7462;53.530;9.414;2023-02-18T03:32:58;6.70;99.90
14741;DHT22;7462;53.530;9.414;2023-02-18T03:35:27;6.60;99.90
14741;DHT22;7462;53.530;9.414;2023-02-18T03:38:01;6.60;99.90
14741;DHT22;7462;53.530;9.414;2023-02-18T03:40:31;6.60;99.90
14741;DHT22;7462;53.530;9.414;2023-02-18T03:43:00;6.60;99.90
14741;DHT22;7462;53.530;9.414;2023-02-18T03:45:28;6.50;99.90
14741;DHT22;7462;53.530;9.414;2023-02-18T03:47:57;6.50;99.90
14741;DHT22;7462;53.530;9.414;2023-02-18T03:50:25;6.60;99.90
14741;DHT22;7462;53.530;9.414;2023-02-18T03:52:53;6.50;99.90
14741;DHT22;7462;53.530;9.414;2023-02-18T03:55:22;6.50;99.90
14741;DHT22;7462;53.530;9.414;2023-02-18T03:57:50;6.50;99.90
14741;DHT22;7462;53.530;9.414;2023-02-18T04:00:19;6.40;99.90
14741;DHT22;7462;53.530;9.414;2023-02-18T04:02:47;6.50;99.90
14741;DHT22;7462;53.530;9.414;2023-02-18T04:05:16;6.50;99.90
14741;DHT22;7462;53.530;9.414;2023-02-18T04:07:44;6.50;99.90
14741;DHT22;7462;53.530;9.414;2023-02-18T04:10:12;6.50;99.90
14741;DHT22;7462;53.530;9.414;2023-02-18T04:12:41;6.50;99.90
14741;DHT22;7462;53.530;9.414;2023-02-18T04:15:09;6.50;99.90
14741;DHT22;7462;53.530;9.414;2023-02-18T04:17:39;6.50;99.90
14741;DHT22;7462;53.530;9.414;2023-02-18T04:20:08;6.40;99.90
14741;DHT22;7462;53.530;9.414;2023-02-18T04:22:36;6.50;99.90
14741;DHT22;7462;53.530;9.414;2023-02-18T04:25:04;6.50;99.90
14741;DHT22;7462;53.530;9.414;2023-02-18T04:27:33;6.40;99.90
14741;DHT22;7462;53.530;9.414;2023-02-18T04:30:03;6.50;99.90
14741;DHT22;7462;53.530;9.414;2023-02-18T04:32:31;6.50;99.90
14741;DHT22;7462;53.530;9.414;2023-02-18T04:34:59;6.50;99.90
14741;DHT22;7462;53.530;9.414;2023-02-18T04:37:27;6.50;99.90
14741;DHT22;7462;53.530;9.414;2023-02-18T04:39:55;6.40;99.90
14741;DHT22;7462;53.530;9.414;2023-02-18T04:42:24;6.50;99.90
14741;DHT22;7462;53.530;9.414;2023-02-18T04:44:52;6.50;99.90
14741;DHT22;7462;53.530;9.414;2023-02-18T04:47:22;6.50;99.90
14741;DHT22;7462;53.530;9.414;2023-02-18T04:49:50;6.50;99.90
14741;DHT22;7462;53.530;9.414;2023-02-18T04:52:18;6.50;99.90
14741;DHT22;7462;53.530;9.414;2023-02-18T04:54:47;6.50;99.90
14741;DHT22;7462;53.530;9.414;2023-02-18T04:57:15;6.50;99.90
14741;DHT22;7462;53.530;9.414;2023-02-18T04:59:44;6.50;99.90
14741;DHT22;7462;53.530;9.414;2023-02-18T05:02:12;6.50;99.90
14741;DHT22;7462;53.530;9.414;2023-02-18T05:04:41;6.50;99.90
14741;DHT22;7462;53.530;9.414;2023-02-18T05:07:09;6.50;99.90
14741;DHT22;7462;53.530;9.414;2023-02-18T05:09:37;6.50;99.90
14741;DHT22;7462;53.530;9.414;2023-02-18T05:12:06;6.50;99.90
14741;DHT22;7462;53.530;9.414;2023-02-18T05:14:34;6.40;99.90
14741;DHT22;7462;53.530;9.414;2023-02-18T05:17:02;6.50;99.90
14741;DHT22;7462;53.530;9.414;2023-02-18T05:19:30;6.50;99.90
14741;DHT22;7462;53.530;9.414;2023-02-18T05:21:59;6.50;99.90
14741;DHT22;7462;53.530;9.414;2023-02-18T05:24:27;6.40;99.90
14741;DHT22;7462;53.530;9.414;2023-02-18T05:26:55;6.50;99.90
14741;DHT22;7462;53.530;9.414;2023-02-18T05:29:23;6.40;99.90
14741;DHT22;7462;53.530;9.414;2023-02-18T05:31:51;6.40;99.90
14741;DHT22;7462;53.530;9.414;2023-02-18T05:34:20;6.40;99.90
14741;DHT22;7462;53.530;9.414;2023-02-18T05:36:48;6.40;99.90
14741;DHT22;7462;53.530;9.414;2023-02-18T05:39:17;6.40;99.90
14741;DHT22;7462;53.530;9.414;2023-02-18T05:41:45;6.40;99.90
14741;DHT22;7462;53.530;9.414;2023-02-18T05:44:13;6.40;99.90
14741;DHT22;7462;53.530;9.414;2023-02-18T05:47:01;6.50;99.90
14741;DHT22;7462;53.530;9.414;2023-02-18T05:49:31;6.50;99.90
14741;DHT22;7462;53.530;9.414;2023-02-18T05:51:59;6.40;99.90
14741;DHT22;7462;53.530;9.414;2023-02-18T05:54:29;6.40;99.90
14741;DHT22;7462;53.530;9.414;2023-02-18T05:56:57;6.50;99.90
14741;DHT22;7462;53.530;9.414;2023-02-18T05:59:25;6.50;99.90
14741;DHT22;7462;53.530;9.414;2023-02-18T06:01:53;6.40;99.90
14741;DHT22;7462;53.530;9.414;2023-02-18T06:04:22;6.40;99.90
14741;DHT22;7462;53.530;9.414;2023-02-18T06:06:50;6.40;99.90
14741;DHT22;7462;53.530;9.414;2023-02-18T06:09:18;6.40;99.90
14741;DHT22;7462;53.530;9.414;2023-02-18T06:11:47;6.60;99.90
14741;DHT22;7462;53.530;9.414;2023-02-18T06:14:15;6.60;99.90
14741;DHT22;7462;53.530;9.414;2023-02-18T06:16:43;6.60;99.90
14741;DHT22;7462;53.530;9.414;2023-02-18T06:19:11;6.60;99.90
14741;DHT22;7462;53.530;9.414;2023-02-18T06:21:40;6.80;99.90
14741;DHT22;7462;53.530;9.414;2023-02-18T06:24:08;6.80;99.90
14741;DHT22;7462;53.530;9.414;2023-02-18T06:26:36;6.70;99.90
14741;DHT22;7462;53.530;9.414;2023-02-18T06:29:05;6.60;99.90
14741;DHT22;7462;53.530;9.414;2023-02-18T06:31:33;6.60;99.90
14741;DHT22;7462;53.530;9.414;2023-02-18T06:34:01;6.60;99.90
14741;DHT22;7462;53.530;9.414;2023-02-18T06:36:29;6.50;99.90
14741;DHT22;7462;53.530;9.414;2023-02-18T06:38:58;6.50;99.90
14741;DHT22;7462;53.530;9.414;2023-02-18T06:41:26;6.60;99.90
14741;DHT22;7462;53.530;9.414;2023-02-18T06:43:54;6.50;99.90
14741;DHT22;7462;53.530;9.414;2023-02-18T06:46:23;6.50;99.90
14741;DHT22;7462;53.530;9.414;2023-02-18T06:48:51;6.40;99.90
14741;DHT22;7462;53.530;9.414;2023-02-18T06:51:19;6.40;99.90
14741;DHT22;7462;53.530;9.414;2023-02-18T06:53:47;6.40;99.90
14741;DHT22;7462;53.530;9.414;2023-02-18T06:56:16;6.40;99.90
14741;DHT22;7462;53.530;9.414;2023-02-18T06:58:44;6.40;99.90
14741;DHT22;7462;53.530;9.414;2023-02-18T07:01:12;6.40;99.90
14741;DHT22;7462;53.530;9.414;2023-02-18T07:03:42;6.40;99.90
14741;DHT22;7462;53.530;9.414;2023-02-18T07:06:10;6.50;99.90
14741;DHT22;7462;53.530;9.414;2023-02-18T07:08:38;6.60;99.90
14741;DHT22;7462;53.530;9.414;2023-02-18T07:11:06;6.50;99.90
14741;DHT22;7462;53.530;9.414;2023-02-18T07:13:34;6.80;99.90
14741;DHT22;7462;53.530;9.414;2023-02-18T07:16:03;6.70;99.90
14741;DHT22;7462;53.530;9.414;2023-02-18T07:18:31;6.90;99.90
14741;DHT22;7462;53.530;9.414;2023-02-18T07:21:00;7.00;99.90
14741;DHT22;7462;53.530;9.414;2023-02-18T07:23:28;6.80;99.90
14741;DHT22;7462;53.530;9.414;2023-02-18T07:26:04;6.80;99.90
14741;DHT22;7462;53.530;9.414;2023-02-18T07:28:32;6.60;99.90
14741;DHT22;7462;53.530;9.414;2023-02-18T07:31:01;6.50;99.90
14741;DHT22;7462;53.530;9.414;2023-02-18T07:33:29;6.50;99.90
14741;DHT22;7462;53.530;9.414;2023-02-18T07:35:58;6.50;99.90
14741;DHT22;7462;53.530;9.414;2023-02-18T07:38:29;6.50;99.90
14741;DHT22;7462;53.530;9.414;2023-02-18T07:40:57;6.60;99.90
14741;DHT22;7462;53.530;9.414;2023-02-18T07:43:26;6.80;99.90
14741;DHT22;7462;53.530;9.414;2023-02-18T07:45:54;6.60;99.90
14741;DHT22;7462;53.530;9.414;2023-02-18T07:48:22;6.60;99.90
14741;DHT22;7462;53.530;9.414;2023-02-18T07:50:50;6.50;99.90
14741;DHT22;7462;53.530;9.414;2023-02-18T07:53:18;6.50;99.90
14741;DHT22;7462;53.530;9.414;2023-02-18T07:55:47;6.50;99.90
14741;DHT22;7462;53.530;9.414;2023-02-18T07:58:16;6.50;99.90
14741;DHT22;7462;53.530;9.414;2023-02-18T08:00:45;6.50;99.90
14741;DHT22;7462;53.530;9.414;2023-02-18T08:03:16;6.50;99.90
14741;DHT22;7462;53.530;9.414;2023-02-18T08:05:46;6.50;99.90
14741;DHT22;7462;53.530;9.414;2023-02-18T08:08:16;6.50;99.90
14741;DHT22;7462;53.530;9.414;2023-02-18T08:10:48;6.50;99.90
14741;DHT22;7462;53.530;9.414;2023-02-18T08:13:16;6.50;99.90
14741;DHT22;7462;53.530;9.414;2023-02-18T08:15:45;6.50;99.90
14741;DHT22;7462;53.530;9.414;2023-02-18T08:18:16;6.50;99.90
14741;DHT22;7462;53.530;9.414;2023-02-18T08:20:45;6.60;99.90
14741;DHT22;7462;53.530;9.414;2023-02-18T08:23:14;6.60;99.90
14741;DHT22;7462;53.530;9.414;2023-02-18T08:25:44;6.70;99.90
14741;DHT22;7462;53.530;9.414;2023-02-18T08:28:17;6.60;99.90
14741;DHT22;7462;53.530;9.414;2023-02-18T08:30:46;6.60;99.90
14741;DHT22;7462;53.530;9.414;2023-02-18T08:33:15;6.60;99.90
14741;DHT22;7462;53.530;9.414;2023-02-18T08:35:44;6.60;99.90
14741;DHT22;7462;53.530;9.414;2023-02-18T08:38:12;6.70;99.90
14741;DHT22;7462;53.530;9.414;2023-02-18T08:40:40;6.70;99.90
14741;DHT22;7462;53.530;9.414;2023-02-18T08:43:09;6.70;99.90
14741;DHT22;7462;53.530;9.414;2023-02-18T08:45:39;6.70;99.90
14741;DHT22;7462;53.530;9.414;2023-02-18T08:48:08;6.70;99.90
14741;DHT22;7462;53.530;9.414;2023-02-18T08:50:46;6.70;99.90
14741;DHT22;7462;53.530;9.414;2023-02-18T08:53:14;6.70;99.90
14741;DHT22;7462;53.530;9.414;2023-02-18T08:55:43;6.70;99.90
14741;DHT22;7462;53.530;9.414;2023-02-18T08:58:11;6.70;99.90
14741;DHT22;7462;53.530;9.414;2023-02-18T09:00:43;6.80;99.90
14741;DHT22;7462;53.530;9.414;2023-02-18T09:03:12;6.80;99.90
14741;DHT22;7462;53.530;9.414;2023-02-18T09:05:40;6.80;99.90
14741;DHT22;7462;53.530;9.414;2023-02-18T09:08:08;6.90;99.90
14741;DHT22;7462;53.530;9.414;2023-02-18T09:10:36;6.80;99.90
14741;DHT22;7462;53.530;9.414;2023-02-18T09:13:05;6.80;99.90
14741;DHT22;7462;53.530;9.414;2023-02-18T09:15:33;6.80;99.90
14741;DHT22;7462;53.530;9.414;2023-02-18T09:18:03;6.80;99.90
14741;DHT22;7462;53.530;9.414;2023-02-18T09:20:31;6.80;99.90
14741;DHT22;7462;53.530;9.414;2023-02-18T09:22:59;6.90;99.90
14741;DHT22;7462;53.530;9.414;2023-02-18T09:25:29;6.90;99.90
14741;DHT22;7462;53.530;9.414;2023-02-18T09:27:57;6.90;99.90
14741;DHT22;7462;53.530;9.414;2023-02-18T09:30:25;7.00;99.90
14741;DHT22;7462;53.530;9.414;2023-02-18T09:32:53;7.00;99.90
14741;DHT22;7462;53.530;9.414;2023-02-18T09:35:22;7.00;99.90
14741;DHT22;7462;53.530;9.414;2023-02-18T09:37:50;7.00;99.90
14741;DHT22;7462;53.530;9.414;2023-02-18T09:40:23;7.00;99.90
14741;DHT22;7462;53.530;9.414;2023-02-18T09:42:54;7.00;99.90
14741;DHT22;7462;53.530;9.414;2023-02-18T09:45:23;7.00;99.90
14741;DHT22;7462;53.530;9.414;2023-02-18T09:47:52;7.00;99.90
14741;DHT22;7462;53.530;9.414;2023-02-18T09:50:25;7.10;99.90
14741;DHT22;7462;53.530;9.414;2023-02-18T09:52:54;7.10;99.90
14741;DHT22;7462;53.530;9.414;2023-02-18T09:55:26;7.20;99.90
14741;DHT22;7462;53.530;9.414;2023-02-18T09:57:56;7.30;99.90
14741;DHT22;7462;53.530;9.414;2023-02-18T10:00:31;7.30;99.90
14741;DHT22;7462;53.530;9.414;2023-02-18T10:03:04;7.50;99.90
14741;DHT22;7462;53.530;9.414;2023-02-18T10:05:35;7.60;99.90
14741;DHT22;7462;53.530;9.414;2023-02-18T10:08:10;7.60;99.90
14741;DHT22;7462;53.530;9.414;2023-02-18T10:10:44;7.70;99.90
14741;DHT22;7462;53.530;9.414;2023-02-18T10:13:14;7.90;99.90
14741;DHT22;7462;53.530;9.414;2023-02-18T10:15:43;8.00;99.90
14741;DHT22;7462;53.530;9.414;2023-02-18T10:18:25;8.10;99.90
14741;DHT22;7462;53.530;9.414;2023-02-18T10:21:04;8.20;99.90
14741;DHT22;7462;53.530;9.414;2023-02-18T10:23:36;8.20;99.90
14741;DHT22;7462;53.530;9.414;2023-02-18T10:26:09;8.40;99.90
14741;DHT22;7462;53.530;9.414;2023-02-18T10:28:39;8.50;99.90
14741;DHT22;7462;53.530;9.414;2023-02-18T10:31:08;8.60;99.90
14741;DHT22;7462;53.530;9.414;2023-02-18T10:33:42;8.70;99.90
14741;DHT22;7462;53.530;9.414;2023-02-18T10:36:25;8.70;99.90
14741;DHT22;7462;53.530;9.414;2023-02-18T10:39:10;8.90;99.90
14741;DHT22;7462;53.530;9.414;2023-02-18T10:41:46;9.00;99.90
14741;DHT22;7462;53.530;9.414;2023-02-18T10:44:24;9.10;99.90
14741;DHT22;7462;53.530;9.414;2023-02-18T10:47:02;9.10;99.90
14741;DHT22;7462;53.530;9.414;2023-02-18T10:49:50;9.10;99.90
14741;DHT22;7462;53.530;9.414;2023-02-18T10:52:22;9.20;99.90
14741;DHT22;7462;53.530;9.414;2023-02-18T10:54:57;9.20;99.90
14741;DHT22;7462;53.530;9.414;2023-02-18T10:57:26;9.30;99.90
14741;DHT22;7462;53.530;9.414;2023-02-18T10:59:57;9.40;99.90
14741;DHT22;7462;53.530;9.414;2023-02-18T11:02:27;9.40;99.90
14741;DHT22;7462;53.530;9.414;2023-02-18T11:04:58;9.40;99.90
14741;DHT22;7462;53.530;9.414;2023-02-18T11:07:31;9.40;99.90
14741;DHT22;7462;53.530;9.414;2023-02-18T11:10:09;9.40;99.90
14741;DHT22;7462;53.530;9.414;2023-02-18T11:12:44;9.50;99.90
14741;DHT22;7462;53.530;9.414;2023-02-18T11:15:19;9.50;99.90
14741;DHT22;7462;53.530;9.414;2023-02-18T11:17:49;9.50;99.90
14741;DHT22;7462;53.530;9.414;2023-02-18T11:20:24;9.50;99.90
14741;DHT22;7462;53.530;9.414;2023-02-18T11:25:41;9.60;99.90
14741;DHT22;7462;53.530;9.414;2023-02-18T11:28:30;9.60;99.90
14741;DHT22;7462;53.530;9.414;2023-02-18T11:31:01;9.60;99.90
14741;DHT22;7462;53.530;9.414;2023-02-18T11:33:33;9.60;99.90
14741;DHT22;7462;53.530;9.414;2023-02-18T11:36:04;9.60;99.90
14741;DHT22;7462;53.530;9.414;2023-02-18T11:38:46;9.60;99.90
14741;DHT22;7462;53.530;9.414;2023-02-18T11:41:17;9.60;99.90
14741;DHT22;7462;53.530;9.414;2023-02-18T11:43:47;9.60;99.90
14741;DHT22;7462;53.530;9.414;2023-02-18T11:46:19;9.60;99.90
14741;DHT22;7462;53.530;9.414;2023-02-18T11:48:48;9.60;99.90
14741;DHT22;7462;53.530;9.414;2023-02-18T11:51:18;9.50;99.90
14741;DHT22;7462;53.530;9.414;2023-02-18T11:53:59;9.60;99.90
14741;DHT22;7462;53.530;9.414;2023-02-18T11:56:30;9.60;99.90
14741;DHT22;7462;53.530;9.414;2023-02-18T11:58:59;9.50;99.90
14741;DHT22;7462;53.530;9.414;2023-02-18T12:01:37;9.50;99.90
14741;DHT22;7462;53.530;9.414;2023-02-18T12:04:12;9.50;99.90
14741;DHT22;7462;53.530;9.414;2023-02-18T12:06:49;9.50;99.90
14741;DHT22;7462;53.530;9.414;2023-02-18T12:09:25;9.50;99.90
14741;DHT22;7462;53.530;9.414;2023-02-18T12:11:55;9.50;99.90
14741;DHT22;7462;53.530;9.414;2023-02-18T12:14:26;9.50;99.90
14741;DHT22;7462;53.530;9.414;2023-02-18T12:17:25;9.50;99.90
14741;DHT22;7462;53.530;9.414;2023-02-18T12:20:18;9.50;99.90
14741;DHT22;7462;53.530;9.414;2023-02-18T12:22:53;9.50;99.90
14741;DHT22;7462;53.530;9.414;2023-02-18T12:25:37;9.50;99.90
14741;DHT22;7462;53.530;9.414;2023-02-18T12:28:18;9.50;99.90
14741;DHT22;7462;53.530;9.414;2023-02-18T12:31:04;9.50;99.90
14741;DHT22;7462;53.530;9.414;2023-02-18T12:33:43;9.40;99.90
14741;DHT22;7462;53.530;9.414;2023-02-18T12:36:21;9.40;99.90
14741;DHT22;7462;53.530;9.414;2023-02-18T12:39:08;9.40;99.90
14741;DHT22;7462;53.530;9.414;2023-02-18T12:42:01;9.40;99.90
14741;DHT22;7462;53.530;9.414;2023-02-18T12:44:36;9.40;99.90
14741;DHT22;7462;53.530;9.414;2023-02-18T12:47:40;9.40;99.90
14741;DHT22;7462;53.530;9.414;2023-02-18T12:50:29;9.40;99.90
14741;DHT22;7462;53.530;9.414;2023-02-18T12:53:12;9.40;99.90
14741;DHT22;7462;53.530;9.414;2023-02-18T12:56:01;9.40;99.90
14741;DHT22;7462;53.530;9.414;2023-02-18T12:58:42;9.40;99.90
14741;DHT22;7462;53.530;9.414;2023-02-18T13:01:40;9.40;99.90
14741;DHT22;7462;53.530;9.414;2023-02-18T13:04:34;9.40;99.90
14741;DHT22;7462;53.530;9.414;2023-02-18T13:07:26;9.40;99.90
14741;DHT22;7462;53.530;9.414;2023-02-18T13:10:11;9.40;99.90
14741;DHT22;7462;53.530;9.414;2023-02-18T13:12:50;9.40;99.90
14741;DHT22;7462;53.530;9.414;2023-02-18T13:15:27;9.40;99.90
14741;DHT22;7462;53.530;9.414;2023-02-18T13:18:00;9.40;99.90
14741;DHT22;7462;53.530;9.414;2023-02-18T13:20:35;9.40;99.90
14741;DHT22;7462;53.530;9.414;2023-02-18T13:23:07;9.40;99.90
14741;DHT22;7462;53.530;9.414;2023-02-18T13:25:38;9.40;99.90
14741;DHT22;7462;53.530;9.414;2023-02-18T13:28:14;9.40;99.90
14741;DHT22;7462;53.530;9.414;2023-02-18T13:30:48;9.40;99.90
14741;DHT22;7462;53.530;9.414;2023-02-18T13:33:22;9.40;99.90
14741;DHT22;7462;53.530;9.414;2023-02-18T13:35:59;9.40;99.90
14741;DHT22;7462;53.530;9.414;2023-02-18T13:38:57;9.30;99.90
14741;DHT22;7462;53.530;9.414;2023-02-18T13:41:28;9.40;99.90
14741;DHT22;7462;53.530;9.414;2023-02-18T13:43:56;9.40;99.90
14741;DHT22;7462;53.530;9.414;2023-02-18T13:46:25;9.40;99.90
14741;DHT22;7462;53.530;9.414;2023-02-18T13:49:02;9.30;99.90
14741;DHT22;7462;53.530;9.414;2023-02-18T13:51:32;9.30;99.90
14741;DHT22;7462;53.530;9.414;2023-02-18T13:54:19;9.30;99.90
14741;DHT22;7462;53.530;9.414;2023-02-18T13:56:51;9.30;99.90
14741;DHT22;7462;53.530;9.414;2023-02-18T13:59:24;9.30;99.90
14741;DHT22;7462;53.530;9.414;2023-02-18T14:02:19;9.30;99.90
14741;DHT22;7462;53.530;9.414;2023-02-18T14:04:56;9.20;99.90
14741;DHT22;7462;53.530;9.414;2023-02-18T14:07:32;9.20;99.90
14741;DHT22;7462;53.530;9.414;2023-02-18T14:10:25;9.20;99.90
14741;DHT22;7462;53.530;9.414;2023-02-18T14:13:22;9.10;99.90
14741;DHT22;7462;53.530;9.414;2023-02-18T14:15:56;9.10;99.90
14741;DHT22;7462;53.530;9.414;2023-02-18T14:18:31;9.10;99.90
14741;DHT22;7462;53.530;9.414;2023-02-18T14:21:15;9.00;99.90
14741;DHT22;7462;53.530;9.414;2023-02-18T14:23:59;9.00;99.90
14741;DHT22;7462;53.530;9.414;2023-02-18T14:26:33;9.00;99.90
14741;DHT22;7462;53.530;9.414;2023-02-18T14:29:07;9.00;99.90
14741;DHT22;7462;53.530;9.414;2023-02-18T14:31:43;8.90;99.90
14741;DHT22;7462;53.530;9.414;2023-02-18T14:37:45;8.80;99.90
14741;DHT22;7462;53.530;9.414;2023-02-18T14:40:49;8.70;99.90
14741;DHT22;7462;53.530;9.414;2023-02-18T14:43:35;8.70;99.90
14741;DHT22;7462;53.530;9.414;2023-02-18T14:46:18;8.60;99.90
14741;DHT22;7462;53.530;9.414;2023-02-18T14:49:07;8.60;99.90
14741;DHT22;7462;53.530;9.414;2023-02-18T14:51:40;8.60;99.90
14741;DHT22;7462;53.530;9.414;2023-02-18T14:54:13;8.50;99.90
14741;DHT22;7462;53.530;9.414;2023-02-18T14:56:51;8.40;99.90
14741;DHT22;7462;53.530;9.414;2023-02-18T14:59:21;8.40;99.90
14741;DHT22;7462;53.530;9.414;2023-02-18T15:01:53;8.40;99.90
14741;DHT22;7462;53.530;9.414;2023-02-18T15:04:24;8.40;99.90
14741;DHT22;7462;53.530;9.414;2023-02-18T15:07:01;8.30;99.90
14741;DHT22;7462;53.530;9.414;2023-02-18T15:09:29;8.30;99.90
14741;DHT22;7462;53.530;9.414;2023-02-18T15:11:59;8.30;99.90
14741;DHT22;7462;53.530;9.414;2023-02-18T15:14:32;8.40;99.90
14741;DHT22;7462;53.530;9.414;2023-02-18T15:17:01;8.40;99.90
14741;DHT22;7462;53.530;9.414;2023-02-18T15:19:37;8.30;99.90
14741;DHT22;7462;53.530;9.414;2023-02-18T15:22:14;8.30;99.90
14741;DHT22;7462;53.530;9.414;2023-02-18T15:24:43;8.30;99.90
14741;DHT22;7462;53.530;9.414;2023-02-18T15:27:13;8.30;99.90
14741;DHT22;7462;53.530;9.414;2023-02-18T15:29:42;8.20;99.90
14741;DHT22;7462;53.530;9.414;2023-02-18T15:32:15;8.20;99.90
14741;DHT22;7462;53.530;9.414;2023-02-18T15:34:45;8.20;99.90
14741;DHT22;7462;53.530;9.414;2023-02-18T15:37:14;8.20;99.90
14741;DHT22;7462;53.530;9.414;2023-02-18T15:39:44;8.20;99.90
14741;DHT22;7462;53.530;9.414;2023-02-18T15:42:17;8.10;99.90
14741;DHT22;7462;53.530;9.414;2023-02-18T15:44:48;8.10;99.90
14741;DHT22;7462;53.530;9.414;2023-02-18T15:47:19;8.00;99.90
14741;DHT22;7462;53.530;9.414;2023-02-18T15:49:52;8.00;99.90
14741;DHT22;7462;53.530;9.414;2023-02-18T15:52:27;8.00;99.90
14741;DHT22;7462;53.530;9.414;2023-02-18T15:54:59;7.90;99.90
14741;DHT22;7462;53.530;9.414;2023-02-18T15:57:30;7.90;99.90
14741;DHT22;7462;53.530;9.414;2023-02-18T16:00:03;7.80;99.90
14741;DHT22;7462;53.530;9.414;2023-02-18T16:02:32;7.80;99.90
14741;DHT22;7462;53.530;9.414;2023-02-18T16:05:01;7.70;99.90
14741;DHT22;7462;53.530;9.414;2023-02-18T16:07:47;7.60;99.90
14741;DHT22;7462;53.530;9.414;2023-02-18T16:10:19;7.50;99.90
14741;DHT22;7462;53.530;9.414;2023-02-18T16:12:50;7.50;99.90
14741;DHT22;7462;53.530;9.414;2023-02-18T16:15:23;7.50;99.90
14741;DHT22;7462;53.530;9.414;2023-02-18T16:17:52;7.50;99.90
14741;DHT22;7462;53.530;9.414;2023-02-18T16:20:28;7.40;99.90
14741;DHT22;7462;53.530;9.414;2023-02-18T16:23:01;7.40;99.90
14741;DHT22;7462;53.530;9.414;2023-02-18T16:25:42;7.40;99.90
14741;DHT22;7462;53.530;9.414;2023-02-18T16:28:13;7.30;99.90
14741;DHT22;7462;53.530;9.414;2023-02-18T16:30:42;7.30;99.90
14741;DHT22;7462;53.530;9.414;2023-02-18T16:33:12;7.30;99.90
14741;DHT22;7462;53.530;9.414;2023-02-18T16:35:41;7.30;99.90
14741;DHT22;7462;53.530;9.414;2023-02-18T16:38:20;7.30;99.90
14741;DHT22;7462;53.530;9.414;2023-02-18T16:40:49;7.30;99.90
14741;DHT22;7462;53.530;9.414;2023-02-18T16:43:19;7.30;99.90
14741;DHT22;7462;53.530;9.414;2023-02-18T16:45:49;7.30;99.90
14741;DHT22;7462;53.530;9.414;2023-02-18T16:48:29;7.20;99.90
14741;DHT22;7462;53.530;9.414;2023-02-18T16:51:00;7.20;99.90
14741;DHT22;7462;53.530;9.414;2023-02-18T16:53:30;7.20;99.90